Time;durP1;ratioP1;P1;durP2;ratioP2;P2;SDS_P1;SDS_P2;PMS_P1;PMS_P2;Temp;Humidity;BMP_temperature;BMP_pressure;BME280_temperature;BME280_humidity;BME280_pressure;Samples;Min_cycle;Max_cycle;Signal;HPM_P1;HPM_P2
2023/10/16 16:58:03;;;;;;;6.35;3.25;;;;;;;10.58;100.00;101914.38;5103339;27;20758;-69
2023/10/16 17:00:28;;;;;;;4.30;2.70;;;;;;;10.56;100.00;101910.19;5098018;28;20043;-66
2023/10/16 17:02:57;;;;;;;4.72;2.95;;;;;;;10.56;100.00;101904.75;5088013;28;20107;-68
2023/10/16 17:05:23;;;;;;;3.55;2.60;;;;;;;10.54;100.00;101906.84;5088254;28;20036;-67
2023/10/16 17:07:51;;;;;;;5.72;3.17;;;;;;;10.52;100.00;101906.19;5110277;28;20096;-68
2023/10/16 17:10:17;;;;;;;5.10;3.47;;;;;;;10.50;100.00;101910.97;5110225;28;20054;-68
2023/10/16 17:12:43;;;;;;;6.22;3.10;;;;;;;10.51;100.00;101923.44;5108638;28;20035;-68
2023/10/16 17:15:11;;;;;;;3.83;2.90;;;;;;;10.50;100.00;101922.63;5108856;28;20028;-69
2023/10/16 17:17:38;;;;;;;3.17;2.85;;;;;;;10.50;100.00;101924.50;5093243;28;20131;-67
2023/10/16 17:20:05;;;;;;;5.78;2.85;;;;;;;10.48;100.00;101930.13;5089330;28;20036;-68
2023/10/16 17:22:34;;;;;;;5.40;2.90;;;;;;;10.45;100.00;101925.94;5109859;28;20111;-67
2023/10/16 17:25:00;;;;;;;4.13;2.83;;;;;;;10.44;100.00;101924.25;5109937;28;20050;-67
2023/10/16 17:27:26;;;;;;;3.15;2.78;;;;;;;10.43;100.00;101933.41;5110004;28;20076;-66
2023/10/16 17:29:51;;;;;;;7.10;2.95;;;;;;;10.43;100.00;101922.59;5100946;28;20036;-68
2023/10/16 17:32:16;;;;;;;4.82;2.65;;;;;;;10.43;100.00;101922.59;5089492;28;20487;-68
2023/10/16 17:34:42;;;;;;;5.55;3.33;;;;;;;10.46;100.00;101921.34;5087150;28;20107;-68
2023/10/16 17:37:07;;;;;;;6.75;2.88;;;;;;;10.46;100.00;101918.63;5102596;28;20113;-66
2023/10/16 17:39:35;;;;;;;7.75;2.63;;;;;;;10.45;100.00;101925.94;5090307;28;20158;-69
2023/10/16 17:42:01;;;;;;;5.55;3.13;;;;;;;10.46;100.00;101927.59;5087825;28;20036;-66
2023/10/16 17:44:26;;;;;;;6.57;3.78;;;;;;;10.28;100.00;101941.59;5088889;28;20032;-68
2023/10/16 17:46:52;;;;;;;4.25;3.22;;;;;;;10.43;100.00;101938.84;5088551;28;20375;-66
2023/10/16 17:49:20;;;;;;;5.97;3.78;;;;;;;10.28;100.00;101938.88;5087433;28;20020;-67
2023/10/16 17:51:46;;;;;;;6.88;3.15;;;;;;;10.42;100.00;101947.97;5075697;28;20475;-66
2023/10/16 17:54:15;;;;;;;8.32;4.63;;;;;;;10.21;100.00;101934.47;5088661;28;20040;-66
2023/10/16 17:56:41;;;;;;;6.55;3.53;;;;;;;10.40;100.00;101939.22;5079745;28;20074;-67
2023/10/16 17:59:07;;;;;;;7.40;4.63;;;;;;;10.41;100.00;101937.34;5088736;28;20082;-66
2023/10/16 18:01:34;;;;;;;9.98;6.70;;;;;;;10.20;100.00;101938.19;5084540;28;20456;-66
2023/10/16 18:03:59;;;;;;;9.60;5.78;;;;;;;10.37;100.00;101945.03;5087605;28;20375;-66
2023/10/16 18:06:27;;;;;;;8.25;4.47;;;;;;;10.36;100.00;101937.94;5085738;28;20041;-67
2023/10/16 18:08:52;;;;;;;4.18;3.13;;;;;;;10.35;100.00;101936.25;5075251;28;20036;-67
2023/10/16 18:11:20;;;;;;;7.93;3.53;;;;;;;10.32;100.00;101928.50;5075085;28;20460;-66
2023/10/16 18:13:46;;;;;;;4.70;3.13;;;;;;;10.32;100.00;101925.78;5075065;28;20502;-68
2023/10/16 18:16:11;;;;;;;6.47;3.42;;;;;;;10.31;100.00;101926.00;5073799;28;20036;-66
2023/10/16 18:18:36;;;;;;;6.00;3.75;;;;;;;10.29;100.00;101920.78;5073643;28;20420;-67
2023/10/16 18:21:03;;;;;;;6.60;3.92;;;;;;;10.27;100.00;101922.84;5073667;28;20567;-65
2023/10/16 18:23:35;;;;;;;7.93;3.90;;;;;;;10.25;100.00;101928.47;5074946;28;20032;-68
2023/10/16 18:26:00;;;;;;;9.27;3.58;;;;;;;10.24;100.00;101923.25;5074973;28;20071;-67
2023/10/16 18:28:28;;;;;;;7.65;4.07;;;;;;;10.21;100.00;101912.81;5073666;28;20441;-65
2023/10/16 18:30:56;;;;;;;14.18;5.55;;;;;;;10.19;100.00;101914.88;5073322;28;20067;-67
2023/10/16 18:33:24;;;;;;;10.40;4.60;;;;;;;10.16;100.00;101915.25;5072553;28;20380;-66
2023/10/16 18:35:50;;;;;;;8.77;4.13;;;;;;;10.14;100.00;101922.75;5059174;28;20025;-66
2023/10/16 18:38:15;;;;;;;8.90;3.63;;;;;;;10.13;100.00;101921.06;5071123;28;20028;-66
2023/10/16 18:40:41;;;;;;;7.55;3.72;;;;;;;10.14;100.00;101930.88;5073530;28;20085;-67
2023/10/16 18:43:07;;;;;;;10.90;4.95;;;;;;;9.88;100.00;101927.72;5074650;28;20029;-67
2023/10/16 18:45:43;;;;;;;8.45;4.00;;;;;;;10.07;100.00;101922.69;5074614;28;20185;-67
2023/10/16 18:48:08;;;;;;;7.43;3.85;;;;;;;10.06;100.00;101916.44;5074502;28;20483;-68
2023/10/16 18:50:34;;;;;;;8.18;3.75;;;;;;;10.06;100.00;101921.84;5074619;28;20033;-67
2023/10/16 18:53:00;;;;;;;8.93;4.03;;;;;;;10.06;100.00;101919.16;5073200;28;20131;-67
2023/10/16 18:55:29;;;;;;;9.18;4.60;;;;;;;10.06;100.00;101915.63;5074489;28;20060;-65
2023/10/16 18:57:56;;;;;;;7.63;4.65;;;;;;;9.87;100.00;101925.22;5073609;28;20059;-66
2023/10/16 19:00:23;;;;;;;10.00;4.80;;;;;;;9.79;100.00;101919.94;5072448;28;20029;-67
2023/10/16 19:02:48;;;;;;;6.32;3.63;;;;;;;9.99;100.00;101914.72;5071299;28;20025;-65
2023/10/16 19:05:15;;;;;;;9.43;5.07;;;;;;;9.78;100.00;101920.97;5071935;28;20086;-66
2023/10/16 19:07:40;;;;;;;8.48;3.80;;;;;;;9.96;100.00;101921.34;5073073;28;20043;-66
2023/10/16 19:10:07;;;;;;;7.13;3.97;;;;;;;9.97;100.00;101923.03;5074247;28;20032;-67
2023/10/16 19:12:33;;;;;;;7.95;4.13;;;;;;;9.96;100.00;101921.34;5072468;28;20032;-68
2023/10/16 19:14:58;;;;;;;7.43;4.07;;;;;;;9.95;100.00;101919.69;5073427;28;20582;-67
2023/10/16 19:17:24;;;;;;;10.75;4.55;;;;;;;9.91;100.00;101911.09;5073901;28;20076;-67
2023/10/16 19:19:49;;;;;;;8.80;4.30;;;;;;;9.90;100.00;101917.56;5071425;28;20055;-67
2023/10/16 19:22:17;;;;;;;5.95;3.85;;;;;;;9.88;100.00;101903.38;5072516;28;20456;-65
2023/10/16 19:24:42;;;;;;;8.07;4.55;;;;;;;9.88;100.00;101913.38;5073255;28;20036;-65
2023/10/16 19:27:08;;;;;;;7.28;3.90;;;;;;;9.87;100.00;101919.81;5072441;28;20029;-66
2023/10/16 19:29:33;;;;;;;5.75;3.85;;;;;;;9.86;100.00;101912.75;5073697;28;20467;-66
2023/10/16 19:32:01;;;;;;;9.73;5.07;;;;;;;9.66;100.00;101913.41;5072040;28;20035;-66
2023/10/16 19:34:26;;;;;;;8.82;4.85;;;;;;;9.62;100.00;101908.53;5073623;28;20126;-68
2023/10/16 19:36:53;;;;;;;10.80;5.50;;;;;;;9.79;100.00;101909.13;5071975;28;20475;-67
2023/10/16 19:39:18;;;;;;;7.28;3.80;;;;;;;9.80;100.00;101908.94;5071073;28;20024;-66
2023/10/16 19:41:47;;;;;;;6.88;4.10;;;;;;;9.80;100.00;101918.91;5071570;28;20021;-66
2023/10/16 19:44:13;;;;;;;19.05;8.02;;;;;;;9.76;100.00;101908.47;5073456;28;20025;-69
2023/10/16 19:46:38;;;;;;;21.25;7.85;;;;;;;9.74;100.00;101902.44;5073429;28;20032;-67
2023/10/16 19:49:04;;;;;;;11.85;5.78;;;;;;;9.71;100.00;101902.81;5071611;28;20021;-68
2023/10/16 19:51:29;;;;;;;7.90;4.90;;;;;;;9.72;100.00;101901.81;5071992;28;20052;-66
2023/10/16 19:53:55;;;;;;;8.23;4.30;;;;;;;9.74;100.00;101901.63;5072995;28;20412;-67
2023/10/16 19:56:20;;;;;;;7.57;4.22;;;;;;;9.74;100.00;101907.84;5071456;28;20091;-67
2023/10/16 19:58:53;;;;;;;8.13;4.22;;;;;;;9.74;100.00;101913.25;5072715;28;20131;-67
2023/10/16 20:01:21;;;;;;;6.20;3.97;;;;;;;9.74;100.00;101907.03;5069328;28;20025;-67
2023/10/16 20:03:47;;;;;;;8.50;3.90;;;;;;;9.72;100.00;101903.66;5072785;28;20537;-67
2023/10/16 20:06:12;;;;;;;6.35;4.05;;;;;;;9.70;100.00;101900.31;5070650;28;20115;-66
2023/10/16 20:08:40;;;;;;;9.20;4.03;;;;;;;9.67;100.00;101906.94;5071594;28;20074;-66
2023/10/16 20:11:05;;;;;;;5.45;3.40;;;;;;;9.65;100.00;101900.91;5072761;28;20502;-67
2023/10/16 20:13:31;;;;;;;4.68;3.80;;;;;;;9.64;100.00;101901.09;5072852;28;20028;-65
2023/10/16 20:15:56;;;;;;;9.90;4.90;;;;;;;9.63;100.00;101905.66;5072568;28;20056;-68
2023/10/16 20:18:22;;;;;;;7.65;3.97;;;;;;;9.61;100.00;101896.91;5072418;28;20039;-67
2023/10/16 20:20:51;;;;;;;7.45;3.67;;;;;;;9.61;100.00;101896.91;5071292;28;20074;-66
2023/10/16 20:23:17;;;;;;;7.80;4.05;;;;;;;9.37;100.00;101895.41;5072741;28;20051;-67
2023/10/16 20:25:44;;;;;;;11.00;4.65;;;;;;;9.35;100.00;101909.09;5073024;28;20035;-67
2023/10/16 20:28:11;;;;;;;9.38;4.50;;;;;;;9.21;100.00;101910.00;5072683;28;20032;-67
2023/10/16 20:30:43;;;;;;;6.85;3.80;;;;;;;9.49;100.00;101906.56;5072436;28;20464;-66
2023/10/16 20:33:16;;;;;;;8.75;3.67;;;;;;;9.51;100.00;101909.88;5072241;28;20060;-67
2023/10/16 20:35:42;;;;;;;5.38;3.55;;;;;;;9.50;100.00;101903.66;5070245;28;20032;-65
2023/10/16 20:38:08;;;;;;;5.82;3.60;;;;;;;9.51;100.00;101907.19;5072431;28;20044;-67
2023/10/16 20:40:36;;;;;;;6.03;4.00;;;;;;;9.50;100.00;101905.53;5072275;28;20036;-68
2023/10/16 20:43:03;;;;;;;6.78;4.05;;;;;;;9.48;100.00;101907.56;5071009;28;20027;-67
2023/10/16 20:45:29;;;;;;;6.53;4.40;;;;;;;9.30;100.00;101900.75;5072167;28;20039;-68
2023/10/16 20:47:58;;;;;;;8.77;4.32;;;;;;;9.47;100.00;101919.44;5070852;28;20033;-66
2023/10/16 20:50:26;;;;;;;8.52;4.07;;;;;;;9.45;100.00;101907.94;5071048;28;20059;-67
2023/10/16 20:52:53;;;;;;;6.25;3.83;;;;;;;9.43;100.00;101910.03;5072204;28;20024;-67
2023/10/16 20:55:21;;;;;;;9.30;5.20;;;;;;;9.22;100.00;101904.41;5072305;28;20032;-66
2023/10/16 20:57:47;;;;;;;11.93;5.10;;;;;;;9.18;100.00;101904.97;5071804;28;20507;-67
2023/10/16 21:00:13;;;;;;;5.57;3.97;;;;;;;9.39;100.00;101914.94;5072378;28;20032;-68
2023/10/16 21:02:44;;;;;;;8.23;4.10;;;;;;;9.42;100.00;101908.34;5068372;28;20027;-67
2023/10/16 21:05:11;;;;;;;7.47;4.70;;;;;;;9.42;100.00;101908.34;5070749;28;20035;-66
2023/10/16 21:07:37;;;;;;;6.47;4.18;;;;;;;9.42;100.00;101913.75;5072255;28;20036;-67
2023/10/16 21:10:11;;;;;;;9.15;4.85;;;;;;;9.22;100.00;101915.22;5071843;28;20422;-67
2023/10/16 21:12:40;;;;;;;8.93;4.40;;;;;;;9.37;100.00;101920.53;5072165;28;20115;-67
2023/10/16 21:15:08;;;;;;;8.07;4.03;;;;;;;9.35;100.00;101919.91;5071951;28;20095;-67
2023/10/16 21:17:34;;;;;;;9.35;4.35;;;;;;;9.33;100.00;101916.56;5070948;28;20106;-66
2023/10/16 21:19:59;;;;;;;7.97;4.60;;;;;;;9.33;100.00;101921.97;5071835;28;20033;-67
2023/10/16 21:22:28;;;;;;;8.02;5.53;;;;;;;9.09;100.00;101919.59;5070795;28;20025;-66
2023/10/16 21:24:55;;;;;;;10.27;5.30;;;;;;;9.08;100.00;101931.44;5072116;28;20025;-67
2023/10/16 21:27:22;;;;;;;8.55;5.13;;;;;;;9.24;100.00;101925.81;5072071;28;20039;-67
2023/10/16 21:29:47;;;;;;;8.80;5.00;;;;;;;9.24;100.00;101920.41;5072055;28;20029;-67
2023/10/16 21:32:18;;;;;;;8.55;4.95;;;;;;;9.26;100.00;101920.22;5070665;28;20060;-65
2023/10/16 21:34:45;;;;;;;10.57;5.60;;;;;;;9.25;100.00;101924.78;5071976;28;20040;-67
2023/10/16 21:37:14;;;;;;;13.25;6.43;;;;;;;9.00;100.00;101919.72;5071730;28;20090;-68
2023/10/16 21:39:40;;;;;;;11.32;4.95;;;;;;;9.20;100.00;101922.66;5071641;28;20028;-66
2023/10/16 21:42:05;;;;;;;10.88;4.97;;;;;;;9.23;100.00;101929.53;5071474;28;20494;-67
2023/10/16 21:44:30;;;;;;;12.85;6.40;;;;;;;8.98;100.00;101923.63;5074913;28;20032;-66
2023/10/16 21:46:55;;;;;;;7.30;4.85;;;;;;;9.19;100.00;101922.84;5073004;28;20121;-67
2023/10/16 21:49:22;;;;;;;10.95;5.45;;;;;;;9.18;100.00;101922.00;5075440;28;20032;-66
2023/10/16 21:51:49;;;;;;;7.82;4.95;;;;;;;9.19;100.00;101917.44;5074159;28;20021;-66
2023/10/16 21:54:15;;;;;;;10.57;6.55;;;;;;;8.93;100.00;101912.56;5075230;28;20028;-67
2023/10/16 21:56:41;;;;;;;10.15;5.28;;;;;;;9.13;100.00;101921.72;5073599;28;20078;-67
2023/10/16 21:59:07;;;;;;;11.27;5.30;;;;;;;9.16;100.00;101912.41;5073983;28;20129;-68
2023/10/16 22:01:32;;;;;;;7.28;4.90;;;;;;;9.16;100.00;101917.81;5069332;28;20480;-68
2023/10/16 22:03:57;;;;;;;9.27;4.75;;;;;;;9.15;100.00;101921.53;5073962;28;20107;-66
2023/10/16 22:06:23;;;;;;;11.93;5.90;;;;;;;8.94;100.00;101917.75;5075132;28;20028;-66
2023/10/16 22:08:48;;;;;;;9.25;5.00;;;;;;;9.09;100.00;101919.59;5073840;28;20044;-67
2023/10/16 22:11:14;;;;;;;6.90;4.53;;;;;;;9.10;100.00;101922.09;5073632;28;20380;-66
2023/10/16 22:13:43;;;;;;;10.30;4.93;;;;;;;9.10;100.00;101915.88;5073522;28;20088;-67
2023/10/16 22:16:11;;;;;;;7.55;4.80;;;;;;;9.09;100.00;101903.38;5072389;28;20028;-67
2023/10/16 22:18:38;;;;;;;10.00;5.63;;;;;;;8.86;100.00;101898.94;5074085;28;20104;-67
2023/10/16 22:21:04;;;;;;;9.32;4.50;;;;;;;9.02;100.00;101903.31;5073433;28;20036;-67
2023/10/16 22:23:29;;;;;;;8.75;4.80;;;;;;;9.00;100.00;101895.41;5074827;28;20472;-67
2023/10/16 22:25:55;;;;;;;6.07;4.63;;;;;;;8.97;100.00;101890.38;5073565;28;20052;-67
2023/10/16 22:28:21;;;;;;;8.98;4.40;;;;;;;8.95;100.00;101881.66;5074635;28;20028;-66
2023/10/16 22:30:47;;;;;;;7.00;4.70;;;;;;;8.92;100.00;101873.91;5073673;28;20067;-65
2023/10/16 22:33:13;;;;;;;6.45;4.47;;;;;;;8.95;100.00;101870.00;5074808;28;20037;-67
2023/10/16 22:35:41;;;;;;;6.82;4.60;;;;;;;8.93;100.00;101862.09;5073588;28;20177;-67
2023/10/16 22:38:07;;;;;;;8.65;4.30;;;;;;;8.92;100.00;101873.91;5074138;28;20032;-67
2023/10/16 22:40:33;;;;;;;10.70;4.63;;;;;;;8.92;100.00;101870.38;5073346;28;20379;-67
2023/10/16 22:42:59;;;;;;;6.63;4.03;;;;;;;8.92;100.00;101873.06;5073363;28;20448;-67
2023/10/16 22:45:27;;;;;;;11.30;4.65;;;;;;;8.93;100.00;101878.28;5072823;28;20460;-66
2023/10/16 22:47:53;;;;;;;9.65;4.13;;;;;;;8.94;100.00;101879.16;5073238;28;20025;-67
2023/10/16 22:50:19;;;;;;;11.32;4.32;;;;;;;8.92;100.00;101878.47;5074187;28;20025;-66
2023/10/16 22:52:44;;;;;;;10.23;4.45;;;;;;;8.89;100.00;101882.38;5073122;28;20032;-67
2023/10/16 22:55:12;;;;;;;6.65;4.40;;;;;;;8.89;100.00;101876.97;5072767;28;20123;-67
2023/10/16 22:57:37;;;;;;;7.53;4.50;;;;;;;8.89;100.00;101876.16;5073841;28;20052;-65
2023/10/16 23:00:11;;;;;;;9.20;4.40;;;;;;;8.90;100.00;101877.84;5073004;28;20111;-66
2023/10/16 23:02:40;;;;;;;7.80;4.65;;;;;;;8.89;100.00;101876.97;5066149;28;20029;-67
2023/10/16 23:05:08;;;;;;;11.05;5.20;;;;;;;8.61;100.00;101874.97;5053849;28;20029;-65
2023/10/16 23:07:35;;;;;;;7.53;4.38;;;;;;;8.82;100.00;101879.59;5054073;28;20469;-66
2023/10/16 23:10:06;;;;;;;5.03;4.13;;;;;;;8.84;100.00;101874.03;5052775;28;20059;-67
2023/10/16 23:12:34;;;;;;;8.68;4.40;;;;;;;8.84;100.00;101874.03;5053965;28;20032;-67
2023/10/16 23:15:11;;;;;;;8.48;4.75;;;;;;;8.85;100.00;101867.59;5066233;28;20040;-66
2023/10/16 23:17:39;;;;;;;6.45;4.32;;;;;;;8.84;100.00;101863.22;5053493;28;20043;-67
2023/10/16 23:20:14;;;;;;;11.25;4.57;;;;;;;8.81;100.00;101866.31;5052859;28;20468;-66
2023/10/16 23:22:41;;;;;;;9.85;4.40;;;;;;;8.79;100.00;101865.66;5065754;28;20032;-67
2023/10/16 23:25:10;;;;;;;5.50;4.20;;;;;;;8.78;100.00;101864.81;5073475;28;20420;-67
2023/10/16 23:27:41;;;;;;;12.23;4.75;;;;;;;8.77;100.00;101865.00;5073489;28;20464;-68
2023/10/16 23:30:15;;;;;;;8.32;4.28;;;;;;;8.77;100.00;101873.09;5072041;28;20057;-67
2023/10/16 23:32:46;;;;;;;6.75;3.92;;;;;;;8.75;100.00;101869.75;5072303;28;20028;-67
2023/10/16 23:35:12;;;;;;;;;;;;;;;8.78;100.00;101870.19;5073735;28;20047;-67
2023/10/16 23:37:37;;;;;;;12.40;4.32;;;;;;;8.74;100.00;101876.16;5073424;28;20257;-66
2023/10/16 23:40:24;;;;;;;5.32;3.50;;;;;;;8.71;100.00;101873.84;5073539;28;20021;-66
2023/10/16 23:42:53;;;;;;;8.27;3.92;;;;;;;8.69;100.00;101871.34;5072944;28;20174;-67
2023/10/16 23:45:21;;;;;;;7.40;3.85;;;;;;;8.67;100.00;101874.22;5072223;28;20025;-67
2023/10/16 23:47:48;;;;;;;5.57;4.07;;;;;;;8.66;100.00;101871.72;5073336;28;20040;-66
2023/10/16 23:50:15;;;;;;;9.40;4.22;;;;;;;8.64;100.00;101869.19;5072984;28;20098;-67
2023/10/16 23:52:56;;;;;;;7.68;4.25;;;;;;;8.65;100.00;101864.63;5073039;28;20070;-65
2023/10/16 23:55:31;;;;;;;8.63;4.15;;;;;;;8.65;100.00;101870.88;5072912;28;20060;-67
2023/10/16 23:57:56;;;;;;;5.68;3.70;;;;;;;8.62;100.00;101868.56;5072607;28;20048;-67
